Time;durP1;ratioP1;P1;durP2;ratioP2;P2;SDS_P1;SDS_P2;PMS_P1;PMS_P2;Temp;Humidity;BMP_temperature;BMP_pressure;BME280_temperature;BME280_humidity;BME280_pressure;Samples;Min_cycle;Max_cycle;Signal;HPM_P1;HPM_P2
2021/11/07 00:02:35;;;;;;;5.53;3.50;;;7.00;99.90;;;;;;5041638;28;20869;-81
2021/11/07 00:05:05;;;;;;;5.47;4.27;;;7.20;99.90;;;;;;5039964;28;20479;-79
2021/11/07 00:07:45;;;;;;;6.73;3.87;;;7.00;99.90;;;;;;5039293;28;20448;-77
2021/11/07 00:10:18;;;;;;;6.70;4.07;;;7.00;99.90;;;;;;5040280;28;20896;-77
2021/11/07 00:12:49;;;;;;;5.80;4.00;;;7.10;99.90;;;;;;5041257;28;20443;-77
2021/11/07 00:15:18;;;;;;;7.20;4.60;;;7.00;99.90;;;;;;5038191;28;20817;-78
2021/11/07 00:17:50;;;;;;;5.40;4.47;;;7.10;99.90;;;;;;5048378;28;20460;-78
2021/11/07 00:20:24;;;;;;;5.20;4.13;;;7.10;99.90;;;;;;5047398;28;20467;-78
2021/11/07 00:22:58;;;;;;;6.13;3.70;;;7.00;99.90;;;;;;5039467;28;20486;-77
2021/11/07 00:25:29;;;;;;;3.47;2.60;;;6.70;99.90;;;;;;5043437;28;20464;-77
2021/11/07 00:28:02;;;;;;;6.27;3.63;;;6.60;99.90;;;;;;5035519;28;20495;-78
2021/11/07 00:30:39;;;;;;;5.90;3.50;;;6.60;99.90;;;;;;5047388;28;20537;-78
2021/11/07 00:33:20;;;;;;;8.07;4.03;;;6.60;99.90;;;;;;5040710;28;20541;-77
2021/11/07 00:36:04;;;;;;;4.73;3.30;;;6.80;99.90;;;;;;5045374;28;20947;-76
2021/11/07 00:38:40;;;;;;;5.00;4.30;;;6.90;99.90;;;;;;5035682;28;20477;-76
2021/11/07 00:41:19;;;;;;;6.13;3.60;;;6.90;99.90;;;;;;5041322;28;20478;-77
2021/11/07 00:43:53;;;;;;;4.07;2.97;;;6.90;99.90;;;;;;5041418;28;20458;-79
2021/11/07 00:46:26;;;;;;;5.57;3.33;;;6.50;99.90;;;;;;5044621;28;20463;-77
2021/11/07 00:48:58;;;;;;;5.53;3.20;;;6.60;99.90;;;;;;5047671;28;20471;-76
2021/11/07 00:51:30;;;;;;;3.83;2.87;;;6.70;99.90;;;;;;5038243;28;20516;-78
2021/11/07 00:54:08;;;;;;;4.60;2.67;;;6.60;99.90;;;;;;5034830;28;20480;-78
2021/11/07 00:56:40;;;;;;;5.50;3.00;;;6.40;99.90;;;;;;5039821;28;20459;-80
2021/11/07 00:59:21;;;;;;;4.77;3.10;;;6.50;99.90;;;;;;5034600;28;20469;-80
2021/11/07 01:01:52;;;;;;;4.40;2.63;;;6.40;99.90;;;;;;5036486;28;20531;-80
2021/11/07 01:04:21;;;;;;;5.57;3.37;;;6.50;99.90;;;;;;5037697;28;20444;-81
2021/11/07 01:06:49;;;;;;;5.30;3.30;;;6.80;99.90;;;;;;5048087;28;20827;-79
2021/11/07 01:09:18;;;;;;;4.40;2.83;;;6.70;99.90;;;;;;5049895;28;20486;-80
2021/11/07 01:11:46;;;;;;;8.57;4.53;;;6.90;99.90;;;;;;5044654;28;20452;-79
2021/11/07 01:14:16;;;;;;;4.47;3.20;;;6.90;99.90;;;;;;5044624;28;20545;-82
2021/11/07 01:16:44;;;;;;;5.60;3.97;;;6.90;99.90;;;;;;5038879;28;20957;-80
2021/11/07 01:19:12;;;;;;;3.70;2.80;;;6.90;99.90;;;;;;5039981;28;20475;-80
2021/11/07 01:21:44;;;;;;;5.83;3.97;;;6.90;99.90;;;;;;5040232;28;20440;-81
2021/11/07 01:24:16;;;;;;;4.17;3.23;;;6.90;99.90;;;;;;5040093;28;20467;-79
2021/11/07 01:26:47;;;;;;;4.70;3.00;;;6.70;99.90;;;;;;5051746;28;20452;-81
2021/11/07 01:29:20;;;;;;;5.63;4.27;;;6.70;99.90;;;;;;5047285;28;20465;-80
2021/11/07 01:31:50;;;;;;;7.40;4.90;;;6.50;99.90;;;;;;5043547;28;20457;-79
2021/11/07 01:34:23;;;;;;;5.53;4.07;;;6.30;99.90;;;;;;5042437;28;20477;-79
2021/11/07 01:36:57;;;;;;;3.73;2.83;;;6.30;99.90;;;;;;5046410;28;20454;-80
2021/11/07 01:39:36;;;;;;;8.53;3.63;;;6.10;99.90;;;;;;5049581;28;20520;-79
2021/11/07 01:42:09;;;;;;;5.90;4.07;;;6.20;99.90;;;;;;5041472;28;20965;-81
2021/11/07 01:44:45;;;;;;;6.40;3.72;;;6.00;1.00;;;;;;5044769;28;20439;-80
2021/11/07 01:47:16;;;;;;;6.70;3.67;;;6.30;1.00;;;;;;5047195;28;20200;-79
2021/11/07 01:49:45;;;;;;;5.60;3.40;;;6.30;99.90;;;;;;5047820;28;20475;-80
2021/11/07 01:52:15;;;;;;;5.07;3.10;;;6.30;99.90;;;;;;5047590;28;20451;-80
2021/11/07 01:54:55;;;;;;;6.28;3.45;;;6.50;99.90;;;;;;5048300;28;20213;-79
2021/11/07 01:57:26;;;;;;;7.32;4.35;;;6.70;99.90;;;;;;5051470;28;20201;-79
2021/11/07 02:00:05;;;;;;;6.33;3.83;;;6.80;99.90;;;;;;5047407;28;20225;-80
2021/11/07 02:02:37;;;;;;;3.53;3.10;;;6.90;99.90;;;;;;5043857;28;20447;-81
2021/11/07 02:05:07;;;;;;;4.07;3.30;;;6.90;99.90;;;;;;5051462;28;20447;-80
2021/11/07 02:07:36;;;;;;;6.17;3.43;;;6.90;99.90;;;;;;5034742;28;20270;-80
2021/11/07 02:10:12;;;;;;;4.20;3.30;;;7.00;99.90;;;;;;5048813;28;20479;-80
2021/11/07 02:12:40;;;;;;;5.68;3.25;;;6.80;99.90;;;;;;5047348;28;20455;-78
2021/11/07 02:15:13;;;;;;;4.90;3.60;;;6.50;99.90;;;;;;5048080;28;20212;-79
2021/11/07 02:17:41;;;;;;;6.10;4.40;;;6.40;99.90;;;;;;5048206;28;21292;-79
2021/11/07 02:20:13;;;;;;;6.83;3.87;;;6.50;99.90;;;;;;5045998;28;20525;-80
2021/11/07 02:22:43;;;;;;;4.03;3.63;;;6.20;1.00;;;;;;5045656;28;20448;-79
2021/11/07 02:25:11;;;;;;;6.53;4.70;;;6.30;1.00;;;;;;5037004;28;20532;-79
2021/11/07 02:27:40;;;;;;;8.48;4.40;;;6.50;1.00;;;;;;5047426;28;20953;-79
2021/11/07 02:30:12;;;;;;;6.67;3.77;;;6.50;99.90;;;;;;5050948;28;20220;-80
2021/11/07 02:32:40;;;;;;;6.53;4.13;;;6.40;99.90;;;;;;5044585;28;20459;-80
2021/11/07 02:35:09;;;;;;;7.10;5.03;;;6.30;1.00;;;;;;5046801;28;20467;-79
2021/11/07 02:37:38;;;;;;;7.57;5.73;;;6.30;1.00;;;;;;5042878;28;20451;-79
2021/11/07 02:40:11;;;;;;;5.38;3.97;;;6.30;1.00;;;;;;5047335;28;20468;-81
2021/11/07 02:42:43;;;;;;;5.95;4.60;;;6.30;1.00;;;;;;5048895;28;20189;-80
2021/11/07 02:45:12;;;;;;;5.63;3.80;;;6.40;1.00;;;;;;5041060;28;20753;-80
2021/11/07 02:47:41;;;;;;;5.07;3.57;;;6.60;99.90;;;;;;5045100;28;20457;-81
2021/11/07 02:50:10;;;;;;;4.97;3.93;;;6.50;99.90;;;;;;5044021;28;20488;-80
2021/11/07 02:52:39;;;;;;;6.70;3.60;;;6.50;99.90;;;;;;5039923;28;20506;-81
2021/11/07 02:55:09;;;;;;;6.07;4.27;;;6.30;1.00;;;;;;5044282;28;20518;-80
2021/11/07 02:57:38;;;;;;;4.80;3.40;;;6.40;1.00;;;;;;5037828;28;20909;-80
2021/11/07 03:00:08;;;;;;;5.37;3.40;;;6.60;99.90;;;;;;5041332;28;20989;-80
2021/11/07 03:02:38;;;;;;;7.10;3.37;;;6.60;99.90;;;;;;5044456;28;20809;-79
2021/11/07 03:05:08;;;;;;;4.87;4.30;;;6.60;99.90;;;;;;5049150;28;20448;-79
2021/11/07 03:07:36;;;;;;;4.10;2.83;;;6.70;99.90;;;;;;5042678;28;20966;-82
2021/11/07 03:10:06;;;;;;;5.35;4.03;;;6.70;99.90;;;;;;5047399;28;20469;-80
2021/11/07 03:12:37;;;;;;;5.80;3.87;;;6.50;99.90;;;;;;5047847;28;20202;-81
2021/11/07 03:15:12;;;;;;;5.80;3.63;;;6.20;99.90;;;;;;5053858;28;20475;-81
2021/11/07 03:17:41;;;;;;;4.60;3.30;;;5.90;1.00;;;;;;5050430;28;20478;-81
2021/11/07 03:20:11;;;;;;;3.10;2.73;;;6.00;1.00;;;;;;5043307;28;20323;-81
2021/11/07 03:22:39;;;;;;;6.00;3.63;;;6.30;1.00;;;;;;5052292;28;20683;-80
2021/11/07 03:25:08;;;;;;;4.83;3.00;;;6.60;1.00;;;;;;5047679;28;20459;-80
2021/11/07 03:27:41;;;;;;;6.63;4.37;;;6.70;99.90;;;;;;5049343;28;20486;-79
2021/11/07 03:30:20;;;;;;;6.50;4.33;;;6.90;99.90;;;;;;5046306;28;20488;-80
2021/11/07 03:32:50;;;;;;;5.27;3.90;;;6.80;99.90;;;;;;5050129;28;20488;-78
2021/11/07 03:35:19;;;;;;;6.57;3.70;;;6.90;99.90;;;;;;5037443;28;20477;-80
2021/11/07 03:37:56;;;;;;;6.80;3.83;;;6.90;99.90;;;;;;5043940;28;20517;-81
2021/11/07 03:40:28;;;;;;;6.60;4.53;;;6.90;99.90;;;;;;5044324;28;20483;-79
2021/11/07 03:42:59;;;;;;;4.87;3.10;;;6.80;99.90;;;;;;5045726;28;20812;-76
2021/11/07 03:45:27;;;;;;;6.23;3.40;;;6.80;99.90;;;;;;5039034;28;21140;-81
2021/11/07 03:48:00;;;;;;;4.10;3.70;;;6.70;99.90;;;;;;5049244;28;20501;-79
2021/11/07 03:50:28;;;;;;;6.10;4.20;;;6.70;99.90;;;;;;5041798;28;20818;-78
2021/11/07 03:52:57;;;;;;;5.40;3.40;;;6.80;99.90;;;;;;5046497;28;20467;-79
2021/11/07 03:55:25;;;;;;;3.85;2.95;;;7.00;99.90;;;;;;5036144;28;20491;-79
2021/11/07 03:57:54;;;;;;;6.97;3.70;;;6.90;99.90;;;;;;5046317;28;20665;-79
2021/11/07 04:00:25;;;;;;;6.80;4.10;;;6.90;99.90;;;;;;5044110;28;20907;-80
2021/11/07 04:02:53;;;;;;;5.00;3.67;;;6.80;99.90;;;;;;5041071;28;20454;-80
2021/11/07 04:05:23;;;;;;;4.30;3.40;;;6.70;99.90;;;;;;5050516;28;20523;-82
2021/11/07 04:07:53;;;;;;;5.30;3.47;;;6.70;99.90;;;;;;5046583;28;20483;-81
2021/11/07 04:10:21;;;;;;;6.17;3.73;;;6.60;99.90;;;;;;5041028;28;20484;-81
2021/11/07 04:12:50;;;;;;;4.40;3.35;;;6.40;99.90;;;;;;5043313;28;20482;-80
2021/11/07 04:15:18;;;;;;;5.05;4.40;;;6.30;99.90;;;;;;5049448;28;20664;-81
2021/11/07 04:17:48;;;;;;;3.33;3.03;;;6.40;99.90;;;;;;5049582;28;20680;-81
2021/11/07 04:20:16;;;;;;;5.27;4.30;;;6.20;99.90;;;;;;5048145;28;20221;-81
2021/11/07 04:22:46;;;;;;;6.95;3.28;;;6.00;1.00;;;;;;5042543;28;20495;-80
2021/11/07 04:25:15;;;;;;;3.70;3.15;;;6.00;1.00;;;;;;5049027;28;20233;-81
2021/11/07 04:27:43;;;;;;;4.40;3.10;;;5.90;1.00;;;;;;5047676;28;20202;-80
2021/11/07 04:30:12;;;;;;;3.20;2.90;;;6.20;1.00;;;;;;5035521;28;20829;-80
2021/11/07 04:32:41;;;;;;;3.33;2.33;;;6.50;1.00;;;;;;5055346;28;20444;-80
2021/11/07 04:35:11;;;;;;;4.50;2.73;;;6.60;99.90;;;;;;5049825;28;20462;-81
2021/11/07 04:37:42;;;;;;;5.25;2.78;;;6.70;99.90;;;;;;5049182;28;20451;-81
2021/11/07 04:40:13;;;;;;;4.65;2.40;;;6.70;99.90;;;;;;5051140;28;20259;-81
2021/11/07 04:42:42;;;;;;;6.83;3.10;;;6.80;99.90;;;;;;5037191;28;20198;-81
2021/11/07 04:45:11;;;;;;;2.70;2.50;;;6.70;99.90;;;;;;5043379;28;20871;-80
2021/11/07 04:47:40;;;;;;;4.97;2.60;;;6.70;99.90;;;;;;5043944;28;20456;-79
2021/11/07 04:50:13;;;;;;;4.43;3.15;;;6.70;99.90;;;;;;5047840;28;20262;-80
2021/11/07 04:52:41;;;;;;;4.17;2.93;;;6.70;99.90;;;;;;5047728;28;20198;-78
2021/11/07 04:55:10;;;;;;;3.90;2.90;;;7.00;99.90;;;;;;5045354;28;20450;-80
2021/11/07 04:57:42;;;;;;;3.77;3.00;;;6.80;99.90;;;;;;5052271;28;20436;-80
2021/11/07 05:00:13;;;;;;;4.23;3.20;;;6.80;99.90;;;;;;5050434;28;20471;-80
2021/11/07 05:02:41;;;;;;;4.90;2.67;;;6.80;99.90;;;;;;5047226;28;20459;-80
2021/11/07 05:05:10;;;;;;;3.83;2.77;;;6.80;99.90;;;;;;5043565;28;20451;-79
2021/11/07 05:07:39;;;;;;;3.00;2.70;;;6.80;99.90;;;;;;5050317;28;20829;-79
2021/11/07 05:10:08;;;;;;;5.80;2.80;;;6.70;99.90;;;;;;5045986;28;20475;-77
2021/11/07 05:12:37;;;;;;;5.33;2.73;;;6.70;99.90;;;;;;5049039;28;20439;-80
2021/11/07 05:15:06;;;;;;;3.93;2.90;;;6.80;99.90;;;;;;5042871;28;20502;-81
2021/11/07 05:17:34;;;;;;;3.10;2.00;;;6.90;99.90;;;;;;5050885;28;20479;-83
2021/11/07 05:20:03;;;;;;;2.67;2.47;;;7.00;99.90;;;;;;5053107;28;20487;-83
2021/11/07 05:22:31;;;;;;;4.57;3.63;;;7.00;99.90;;;;;;5042660;28;20530;-82
2021/11/07 05:25:01;;;;;;;3.28;2.97;;;6.90;99.90;;;;;;5052828;28;20463;-82
2021/11/07 05:27:29;;;;;;;6.83;3.43;;;7.00;99.90;;;;;;5051567;28;20904;-82
2021/11/07 05:29:58;;;;;;;6.07;2.92;;;6.90;99.90;;;;;;5046138;28;20518;-82
2021/11/07 05:32:27;;;;;;;3.30;2.83;;;7.00;99.90;;;;;;5050427;28;20201;-82
2021/11/07 05:34:55;;;;;;;3.83;3.00;;;6.90;99.90;;;;;;5046578;28;20459;-81
2021/11/07 05:37:24;;;;;;;4.53;2.90;;;6.80;99.90;;;;;;5045541;28;20837;-82
2021/11/07 05:39:53;;;;;;;6.20;3.30;;;6.50;99.90;;;;;;5046564;28;20486;-83
2021/11/07 05:42:23;;;;;;;4.67;3.37;;;6.20;1.00;;;;;;5046187;28;20526;-80
2021/11/07 05:44:51;;;;;;;4.82;3.03;;;6.10;1.00;;;;;;5044193;28;20444;-81
2021/11/07 05:47:19;;;;;;;5.55;3.80;;;5.80;1.00;;;;;;5050403;28;20212;-80
2021/11/07 05:49:48;;;;;;;4.75;3.03;;;5.70;99.90;;;;;;5050411;28;20553;-80
2021/11/07 05:52:17;;;;;;;4.30;3.13;;;5.70;99.90;;;;;;5055959;28;20243;-80
2021/11/07 05:54:45;;;;;;;8.30;4.10;;;5.80;99.90;;;;;;5034946;28;20531;-80
2021/11/07 05:57:13;;;;;;;5.30;3.95;;;5.80;22.20;;;;;;5044816;28;20475;-78
2021/11/07 05:59:43;;;;;;;6.00;3.40;;;5.70;99.90;;;;;;5042151;28;20595;-81
2021/11/07 06:02:11;;;;;;;6.47;3.92;;;5.90;99.90;;;;;;5041243;28;20608;-80
2021/11/07 06:04:40;;;;;;;6.05;4.13;;;5.60;99.90;;;;;;5043986;28;20242;-81
2021/11/07 06:07:08;;;;;;;7.85;4.00;;;5.80;27.10;;;;;;5049989;28;20198;-81
2021/11/07 06:09:37;;;;;;;7.78;4.65;;;5.70;99.90;;;;;;5046126;28;20231;-81
2021/11/07 06:12:06;;;;;;;9.63;5.53;;;5.50;99.90;;;;;;5036651;28;20205;-81
2021/11/07 06:14:35;;;;;;;6.07;3.95;;;5.40;99.90;;;;;;5045444;28;20198;-81
2021/11/07 06:17:04;;;;;;;9.05;4.70;;;5.20;1.00;;;;;;5043583;28;20265;-81
2021/11/07 06:19:33;;;;;;;10.48;4.90;;;4.90;1.00;;;;;;5045626;28;20234;-79
2021/11/07 06:22:01;;;;;;;7.60;5.15;;;4.80;99.90;;;;;;5050005;28;20276;-80
2021/11/07 06:24:30;;;;;;;10.15;5.50;;;4.50;1.00;;;;;;5042522;28;20255;-80
2021/11/07 06:27:01;;;;;;;9.35;5.45;;;4.40;99.90;;;;;;5047143;28;20199;-80
2021/11/07 06:29:29;;;;;;;8.65;5.28;;;4.60;99.90;;;;;;5044828;28;20230;-79
2021/11/07 06:31:58;;;;;;;12.43;4.30;;;4.70;1.00;;;;;;5045948;28;20211;-80
2021/11/07 06:34:29;;;;;;;6.05;4.07;;;4.80;99.90;;;;;;5042651;28;20196;-80
2021/11/07 06:36:58;;;;;;;7.88;4.50;;;4.60;99.90;;;;;;5030539;28;20279;-80
2021/11/07 06:39:28;;;;;;;10.07;5.80;;;4.60;1.00;;;;;;5049276;28;20274;-79
2021/11/07 06:41:57;;;;;;;6.57;3.78;;;4.70;93.10;;;;;;5036011;28;20209;-80
2021/11/07 06:44:25;;;;;;;7.70;4.32;;;4.90;1.00;;;;;;5050651;28;20196;-80
2021/11/07 06:46:53;;;;;;;7.90;4.90;;;4.80;1.00;;;;;;5048197;28;20190;-80
2021/11/07 06:49:22;;;;;;;10.32;4.85;;;4.90;99.90;;;;;;5044971;28;20225;-82
2021/11/07 06:51:51;;;;;;;7.07;4.70;;;5.20;99.90;;;;;;5036055;28;20224;-81
2021/11/07 06:54:21;;;;;;;5.65;4.15;;;4.90;99.90;;;;;;5046532;28;20236;-83
2021/11/07 06:56:49;;;;;;;9.60;5.57;;;5.20;99.90;;;;;;5045678;28;20275;-79
2021/11/07 06:59:18;;;;;;;5.57;4.35;;;5.40;99.90;;;;;;5045341;28;20221;-77
2021/11/07 07:01:46;;;;;;;9.50;6.28;;;5.50;99.90;;;;;;5041137;28;20227;-79
2021/11/07 07:04:14;;;;;;;9.38;5.10;;;5.40;99.90;;;;;;5048773;28;20204;-78
2021/11/07 07:06:42;;;;;;;9.15;5.88;;;5.20;1.00;;;;;;5047848;28;20203;-78
2021/11/07 07:09:14;;;;;;;7.10;3.50;;;5.30;1.00;;;;;;5043896;28;20622;-78
2021/11/07 07:11:45;;;;;;;5.70;4.00;;;5.50;1.00;;;;;;5041773;28;20505;-78
2021/11/07 07:14:17;;;;;;;6.95;4.45;;;5.40;1.00;;;;;;5045156;28;20202;-77
2021/11/07 07:16:53;;;;;;;10.45;4.90;;;5.20;99.90;;;;;;5042431;28;20260;-77
2021/11/07 07:19:39;;;;;;;7.82;4.60;;;5.10;1.00;;;;;;5043369;28;20265;-78
2021/11/07 07:22:30;;;;;;;6.05;4.38;;;5.20;1.00;;;;;;5038344;28;20556;-78
2021/11/07 07:30:41;;;;;;;7.90;4.57;;;5.20;99.90;;;;;;5043735;28;20590;-77
2021/11/07 07:33:29;;;;;;;11.23;5.57;;;5.10;99.90;;;;;;5044795;28;20200;-77
2021/11/07 07:35:57;;;;;;;8.55;4.75;;;5.10;99.90;;;;;;5042644;28;20209;-78
2021/11/07 07:38:26;;;;;;;6.38;3.97;;;5.30;99.90;;;;;;5040693;28;20990;-78
2021/11/07 07:40:56;;;;;;;6.68;4.20;;;5.30;99.90;;;;;;5044793;28;20236;-78
2021/11/07 07:43:25;;;;;;;8.60;5.82;;;5.30;99.90;;;;;;5041718;28;20571;-78
2021/11/07 07:45:57;;;;;;;8.02;5.05;;;5.40;1.00;;;;;;5043878;28;20334;-77
2021/11/07 07:48:25;;;;;;;6.65;4.10;;;5.50;1.00;;;;;;5042219;28;20188;-78
2021/11/07 07:50:53;;;;;;;9.63;5.38;;;5.40;99.90;;;;;;5041767;28;20270;-76
2021/11/07 07:53:24;;;;;;;9.05;5.05;;;5.60;99.90;;;;;;5043483;28;20197;-77
2021/11/07 07:55:52;;;;;;;12.65;5.78;;;5.90;1.00;;;;;;5038245;28;21087;-78
2021/11/07 07:58:22;;;;;;;8.30;5.47;;;6.00;99.90;;;;;;5040374;28;20217;-79
2021/11/07 08:00:50;;;;;;;9.30;5.33;;;6.30;80.50;;;;;;5044600;28;20483;-77
2021/11/07 08:03:18;;;;;;;8.52;4.80;;;6.30;1.00;;;;;;5042350;28;20486;-79
2021/11/07 08:05:46;;;;;;;10.88;4.20;;;6.30;73.50;;;;;;5045322;28;20262;-77
2021/11/07 08:08:14;;;;;;;7.88;5.07;;;6.40;1.00;;;;;;5037957;28;20190;-77
2021/11/07 08:10:43;;;;;;;9.32;4.88;;;6.40;1.00;;;;;;5039712;28;20287;-79
2021/11/07 08:13:11;;;;;;;11.05;5.00;;;6.60;99.90;;;;;;5035639;28;20693;-78
2021/11/07 08:15:40;;;;;;;7.53;4.20;;;6.50;1.00;;;;;;5035146;28;20237;-80
2021/11/07 08:18:09;;;;;;;6.90;3.90;;;6.60;1.00;;;;;;5040199;28;20483;-78
2021/11/07 08:20:37;;;;;;;9.07;5.07;;;6.80;99.90;;;;;;5040107;28;20268;-78
2021/11/07 08:23:05;;;;;;;9.73;5.60;;;6.80;1.00;;;;;;5038999;28;20928;-78
2021/11/07 08:25:33;;;;;;;7.43;4.97;;;6.70;1.00;;;;;;5039501;28;20223;-78
2021/11/07 08:28:05;;;;;;;7.45;4.75;;;6.60;1.00;;;;;;5039976;28;20447;-79
2021/11/07 08:30:35;;;;;;;6.70;3.53;;;6.60;1.00;;;;;;5036314;28;20283;-77
2021/11/07 08:33:06;;;;;;;6.23;4.00;;;6.50;1.00;;;;;;5042024;28;20227;-77
2021/11/07 08:35:39;;;;;;;6.03;2.97;;;6.50;1.00;;;;;;5037520;28;20543;-77
2021/11/07 08:38:10;;;;;;;5.67;3.10;;;6.60;1.00;;;;;;5035189;28;20467;-79
2021/11/07 08:40:59;;;;;;;5.60;3.27;;;6.70;99.90;;;;;;5033100;28;20452;-79
2021/11/07 09:00:21;;;;;;;4.67;3.33;;;6.50;99.90;;;;;;5043526;28;20233;-80
2021/11/07 09:03:13;;;;;;;5.68;3.22;;;6.40;6.50;;;;;;5042431;28;20458;-79
2021/11/07 09:05:55;;;;;;;5.80;2.67;;;6.30;99.90;;;;;;5044300;28;20216;-79
2021/11/07 09:08:24;;;;;;;4.83;2.87;;;6.50;99.90;;;;;;5043895;28;20450;-79
2021/11/07 09:10:55;;;;;;;6.53;3.87;;;6.80;99.90;;;;;;5041604;28;20476;-80
2021/11/07 09:13:23;;;;;;;4.40;2.30;;;6.80;1.00;;;;;;5041735;28;20479;-78
2021/11/07 09:15:52;;;;;;;6.77;3.30;;;6.80;1.00;;;;;;5037934;28;20197;-81
2021/11/07 09:18:20;;;;;;;3.60;2.60;;;6.80;98.30;;;;;;5040033;28;20478;-80
2021/11/07 09:20:58;;;;;;;7.03;4.47;;;7.00;67.00;;;;;;5037648;28;20459;-79
2021/11/07 09:23:32;;;;;;;4.83;3.40;;;7.10;1.00;;;;;;5042116;28;20209;-82
2021/11/07 09:28:59;;;;;;;4.87;2.63;;;7.30;1.00;;;;;;5017100;28;20565;-80
2021/11/07 09:34:24;;;;;;;7.93;3.07;;;8.00;1.00;;;;;;5039431;28;20480;-80
2021/11/07 09:37:01;;;;;;;2.93;2.33;;;8.40;1.00;;;;;;5045700;28;20956;-79
2021/11/07 09:39:35;;;;;;;3.03;1.93;;;8.60;99.90;;;;;;5045152;28;20490;-79
2021/11/07 09:44:49;;;;;;;4.60;2.17;;;8.60;99.90;;;;;;5037900;28;21073;-80
2021/11/07 09:47:34;;;;;;;1.90;1.80;;;8.60;99.90;;;;;;5044759;28;20743;-78
2021/11/07 09:50:02;;;;;;;3.00;2.00;;;8.60;99.90;;;;;;5041363;28;20481;-79
2021/11/07 09:52:37;;;;;;;3.43;2.10;;;8.80;99.90;;;;;;5037706;28;20460;-78
2021/11/07 09:55:07;;;;;;;3.63;2.00;;;8.80;99.90;;;;;;5042925;28;20469;-78
2021/11/07 09:57:36;;;;;;;3.65;2.10;;;8.80;99.90;;;;;;5044006;28;20436;-77
2021/11/07 10:00:08;;;;;;;1.73;1.50;;;8.60;99.90;;;;;;5046196;28;20854;-78
2021/11/07 10:02:36;;;;;;;6.93;1.60;;;8.50;99.90;;;;;;5039251;28;21114;-79
2021/11/07 10:05:06;;;;;;;2.53;1.90;;;8.50;99.90;;;;;;5043098;28;20454;-78
2021/11/07 10:07:39;;;;;;;1.73;1.63;;;8.60;99.90;;;;;;5041348;28;20200;-78
2021/11/07 10:10:18;;;;;;;2.13;1.70;;;8.70;99.90;;;;;;5038679;28;20441;-79
2021/11/07 10:12:49;;;;;;;1.73;1.60;;;8.80;99.90;;;;;;5042462;28;20454;-78
2021/11/07 10:15:27;;;;;;;2.83;1.80;;;8.90;99.90;;;;;;5042122;28;20464;-78
2021/11/07 10:17:58;;;;;;;1.63;1.53;;;9.10;99.90;;;;;;5036895;28;20953;-77
2021/11/07 10:20:31;;;;;;;5.07;1.60;;;9.10;99.90;;;;;;5039059;28;20537;-78
2021/11/07 10:23:06;;;;;;;1.97;1.77;;;9.20;99.90;;;;;;5043180;28;20489;-79
2021/11/07 10:25:37;;;;;;;2.30;1.90;;;9.30;99.90;;;;;;5038062;28;20496;-79
2021/11/07 10:28:18;;;;;;;2.97;1.70;;;9.20;99.90;;;;;;5041356;28;20465;-79
2021/11/07 10:30:49;;;;;;;1.93;1.53;;;9.40;99.90;;;;;;5042249;28;21095;-77
2021/11/07 10:33:52;;;;;;;1.53;1.43;;;9.50;99.90;;;;;;5045376;28;20459;-83
2021/11/07 10:36:45;;;;;;;2.90;1.43;;;9.80;99.90;;;;;;5043383;28;20511;-79
2021/11/07 10:39:22;;;;;;;2.80;1.80;;;10.10;99.90;;;;;;5045953;28;20490;-79
2021/11/07 10:53:06;;;;;;;1.70;1.23;;;10.00;99.90;;;;;;5045856;28;20457;-79
2021/11/07 10:55:36;;;;;;;2.20;1.53;;;10.10;99.90;;;;;;5045224;28;20456;-83
2021/11/07 10:58:05;;;;;;;1.40;1.30;;;10.20;99.90;;;;;;5046479;28;20464;-79
2021/11/07 11:00:35;;;;;;;1.10;1.00;;;10.30;99.90;;;;;;5044503;28;20603;-79
2021/11/07 11:03:06;;;;;;;2.50;0.90;;;10.30;99.90;;;;;;5041821;28;20495;-81
2021/11/07 11:05:38;;;;;;;1.38;0.90;;;10.40;99.90;;;;;;5044070;28;20971;-80
2021/11/07 11:08:11;;;;;;;2.10;0.80;;;10.40;99.90;;;;;;5041370;28;20201;-78
2021/11/07 11:13:31;;;;;;;1.00;0.90;;;10.40;99.90;;;;;;5042487;28;20471;-78
2021/11/07 11:21:55;;;;;;;0.80;0.70;;;10.60;99.90;;;;;;5049027;28;20969;-78
2021/11/07 11:24:31;;;;;;;0.87;0.73;;;10.50;99.90;;;;;;5038774;28;20461;-77
2021/11/07 11:27:18;;;;;;;3.50;0.80;;;10.30;99.90;;;;;;5033572;28;20523;-78
2021/11/07 11:29:56;;;;;;;0.90;0.80;;;10.20;99.90;;;;;;5042711;28;20224;-79
2021/11/07 11:32:33;;;;;;;0.90;0.70;;;10.30;99.90;;;;;;5042654;28;20516;-79
2021/11/07 11:35:06;;;;;;;1.10;1.00;;;10.50;99.90;;;;;;5040810;28;20897;-80
2021/11/07 11:37:42;;;;;;;0.77;0.70;;;10.40;99.90;;;;;;5037693;28;20456;-79
2021/11/07 11:40:16;;;;;;;2.70;0.70;;;10.30;99.90;;;;;;5042056;28;20485;-79
2021/11/07 11:42:51;;;;;;;0.60;0.60;;;10.40;99.90;;;;;;5040878;28;20464;-79
2021/11/07 11:45:22;;;;;;;2.10;0.80;;;10.40;99.90;;;;;;5037487;28;20451;-79
2021/11/07 11:48:08;;;;;;;0.60;0.60;;;10.30;99.90;;;;;;5033140;28;21091;-78
2021/11/07 11:51:06;;;;;;;1.50;0.57;;;10.50;99.90;;;;;;5042133;28;20473;-78
2021/11/07 11:54:05;;;;;;;1.00;0.80;;;10.50;99.90;;;;;;5038782;28;20505;-78
2021/11/07 11:56:38;;;;;;;0.80;0.80;;;10.60;99.90;;;;;;5041059;28;20951;-79
2021/11/07 11:59:29;;;;;;;1.70;0.60;;;10.90;99.90;;;;;;5046536;28;20231;-78
2021/11/07 12:02:16;;;;;;;1.20;1.10;;;11.20;99.90;;;;;;5044976;28;20577;-79
2021/11/07 12:05:01;;;;;;;0.90;0.90;;;11.40;99.90;;;;;;5039182;28;20862;-80
2021/11/07 12:07:35;;;;;;;0.67;0.67;;;11.60;99.90;;;;;;5040015;28;20469;-80
2021/11/07 12:10:12;;;;;;;0.77;0.67;;;11.60;99.90;;;;;;5043356;28;20715;-80
2021/11/07 12:12:49;;;;;;;2.33;0.80;;;11.70;99.90;;;;;;5039360;28;20534;-79
2021/11/07 12:15:27;;;;;;;1.40;0.63;;;11.70;99.90;;;;;;5040620;28;20450;-79
2021/11/07 12:18:04;;;;;;;0.70;0.70;;;11.80;99.90;;;;;;5040494;28;20503;-80
2021/11/07 12:20:36;;;;;;;0.80;0.80;;;11.90;99.90;;;;;;5035374;28;20225;-79
2021/11/07 12:23:15;;;;;;;1.00;0.70;;;11.90;99.90;;;;;;5038941;28;20520;-77
2021/11/07 12:25:44;;;;;;;0.90;0.70;;;12.00;99.90;;;;;;5038462;28;20455;-79
2021/11/07 12:28:15;;;;;;;1.73;1.33;;;12.00;99.90;;;;;;5037670;28;20543;-80
2021/11/07 12:30:44;;;;;;;0.60;0.57;;;12.00;99.90;;;;;;5044148;28;20881;-79
2021/11/07 12:33:16;;;;;;;1.10;0.80;;;11.90;99.90;;;;;;5038262;28;20603;-80
2021/11/07 12:35:53;;;;;;;0.60;0.50;;;11.80;99.90;;;;;;5048024;28;20516;-80
2021/11/07 12:41:20;;;;;;;1.00;1.00;;;11.80;99.90;;;;;;5038463;28;20562;-80
2021/11/07 12:43:52;;;;;;;0.60;0.60;;;11.70;99.90;;;;;;5034281;28;20459;-80
2021/11/07 12:49:26;;;;;;;1.80;0.70;;;11.50;99.90;;;;;;5040555;28;20518;-81
2021/11/07 12:51:57;;;;;;;0.60;0.60;;;11.50;99.90;;;;;;5043767;28;20456;-78
2021/11/07 12:54:33;;;;;;;1.10;0.60;;;11.50;99.90;;;;;;5046224;28;21283;-78
2021/11/07 12:57:04;;;;;;;0.90;0.80;;;11.40;99.90;;;;;;5040224;28;20480;-78
2021/11/07 12:59:36;;;;;;;0.70;0.67;;;11.50;99.90;;;;;;5047350;28;20477;-79
2021/11/07 13:02:22;;;;;;;2.67;0.73;;;11.60;99.90;;;;;;5047519;28;20490;-79
2021/11/07 13:04:56;;;;;;;0.57;0.57;;;11.60;99.90;;;;;;5050527;28;20475;-79
2021/11/07 13:07:29;;;;;;;0.50;0.50;;;11.70;99.90;;;;;;5051901;28;20818;-78
2021/11/07 13:10:01;;;;;;;0.70;0.70;;;11.70;99.90;;;;;;5050904;28;20508;-78
2021/11/07 13:12:34;;;;;;;0.70;0.70;;;11.70;99.90;;;;;;5041177;28;20878;-78
2021/11/07 13:15:18;;;;;;;0.70;0.70;;;11.80;99.90;;;;;;5042576;28;20522;-78
2021/11/07 13:18:07;;;;;;;1.67;0.70;;;11.70;99.90;;;;;;5045626;28;20459;-78
2021/11/07 13:21:01;;;;;;;0.67;0.60;;;11.80;99.90;;;;;;5049727;28;20491;-77
2021/11/07 13:23:49;;;;;;;0.73;0.60;;;11.70;99.90;;;;;;5034808;28;20451;-79
2021/11/07 13:26:35;;;;;;;0.60;0.60;;;11.80;99.90;;;;;;5046692;28;20455;-78
2021/11/07 13:29:26;;;;;;;0.60;0.60;;;11.80;99.90;;;;;;5045732;28;20490;-78
2021/11/07 13:35:07;;;;;;;0.70;0.50;;;11.90;99.90;;;;;;5034102;28;20459;-78
2021/11/07 13:37:41;;;;;;;0.70;0.60;;;11.90;99.90;;;;;;5045792;28;20443;-79
2021/11/07 13:40:19;;;;;;;0.90;0.70;;;11.90;99.90;;;;;;5046031;28;20474;-78
2021/11/07 13:42:48;;;;;;;0.83;0.70;;;12.00;99.90;;;;;;5045837;28;20974;-78
2021/11/07 13:45:25;;;;;;;0.70;0.70;;;12.00;99.90;;;;;;5043657;28;20472;-79
2021/11/07 13:47:58;;;;;;;0.80;0.80;;;12.00;99.90;;;;;;5050899;28;20452;-77
2021/11/07 13:50:28;;;;;;;0.80;0.50;;;12.00;99.90;;;;;;5037235;28;21003;-77
2021/11/07 13:52:57;;;;;;;0.60;0.60;;;12.10;99.90;;;;;;5045936;28;20466;-78
2021/11/07 13:55:28;;;;;;;0.87;0.50;;;12.20;99.90;;;;;;5044110;28;20466;-78
2021/11/07 13:58:09;;;;;;;0.50;0.50;;;12.00;99.90;;;;;;5039670;28;20992;-78
2021/11/07 14:00:38;;;;;;;1.73;0.60;;;12.00;99.90;;;;;;5031398;28;20480;-77
2021/11/07 14:03:15;;;;;;;0.60;0.60;;;12.00;99.90;;;;;;5049186;28;20455;-78
2021/11/07 14:05:51;;;;;;;0.73;0.70;;;12.00;99.90;;;;;;5040639;28;20501;-78
2021/11/07 14:08:20;;;;;;;0.93;0.70;;;12.10;99.90;;;;;;5041028;28;20463;-78
2021/11/07 14:10:48;;;;;;;0.57;0.57;;;11.90;99.90;;;;;;5046827;28;20481;-78
2021/11/07 14:13:19;;;;;;;0.80;0.60;;;11.80;99.90;;;;;;5049196;28;20461;-78
2021/11/07 14:15:51;;;;;;;0.63;0.63;;;11.80;99.90;;;;;;5046080;28;20991;-78
2021/11/07 14:18:24;;;;;;;0.60;0.60;;;11.50;99.90;;;;;;5041137;28;20468;-79
2021/11/07 14:20:57;;;;;;;0.67;0.60;;;11.60;99.90;;;;;;5034988;28;21048;-78
2021/11/07 14:23:30;;;;;;;1.30;0.57;;;11.50;99.90;;;;;;5042730;28;20455;-78